createdAt,value
2022-12-17T00:01:54.241Z,1.80
2022-12-17T00:04:39.726Z,1.80
2022-12-17T00:07:25.669Z,1.80
2022-12-17T00:10:11.505Z,1.80
2022-12-17T00:12:56.983Z,1.80
2022-12-17T00:15:43.121Z,1.80
2022-12-17T00:18:30.953Z,1.80
2022-12-17T00:21:19.213Z,1.80
2022-12-17T00:24:05.827Z,1.90
2022-12-17T00:26:52.021Z,1.90
2022-12-17T00:29:38.259Z,1.90
2022-12-17T00:32:27.183Z,1.90
2022-12-17T00:35:12.944Z,1.90
2022-12-17T00:37:58.616Z,1.90
2022-12-17T00:40:44.213Z,1.90
2022-12-17T00:43:32.126Z,1.90
2022-12-17T00:46:18.392Z,1.90
2022-12-17T00:49:04.458Z,1.80
2022-12-17T00:51:50.431Z,1.90
2022-12-17T00:54:36.077Z,1.80
2022-12-17T00:57:21.959Z,1.80
2022-12-17T01:00:07.992Z,1.80
2022-12-17T01:02:53.937Z,1.80
2022-12-17T01:05:39.795Z,1.80
2022-12-17T01:08:28.415Z,1.80
2022-12-17T01:11:24.628Z,1.80
2022-12-17T01:14:11.480Z,1.80
2022-12-17T01:16:57.125Z,1.80
2022-12-17T01:19:43.251Z,1.80
2022-12-17T01:22:30.153Z,1.80
2022-12-17T01:25:15.758Z,1.80
2022-12-17T01:28:01.428Z,1.80
2022-12-17T01:30:46.975Z,1.80
2022-12-17T01:33:32.612Z,1.80
2022-12-17T01:36:18.755Z,1.70
2022-12-17T01:39:04.327Z,1.70
2022-12-17T01:41:50.330Z,1.70
2022-12-17T01:45:03.599Z,1.60
2022-12-17T01:47:54.259Z,1.60
2022-12-17T01:50:46.272Z,1.50
2022-12-17T01:53:34.006Z,1.40
2022-12-17T01:56:20.546Z,1.30
2022-12-17T01:59:07.071Z,1.20
2022-12-17T02:01:53.447Z,1.20
2022-12-17T02:04:39.116Z,1.20
2022-12-17T02:07:52.873Z,1.10
2022-12-17T02:10:42.735Z,1.20
2022-12-17T02:13:44.444Z,1.20
2022-12-17T02:16:37.936Z,1.20
2022-12-17T02:19:39.424Z,1.20
2022-12-17T02:22:41.338Z,1.30
2022-12-17T02:26:00.764Z,1.30
2022-12-17T02:28:49.367Z,1.30
2022-12-17T02:31:37.270Z,1.30
2022-12-17T02:34:23.859Z,1.30
2022-12-17T02:37:09.546Z,1.30
2022-12-17T02:39:58.507Z,1.30
2022-12-17T02:42:47.004Z,1.30
2022-12-17T02:45:35.180Z,1.40
2022-12-17T02:48:21.552Z,1.30
2022-12-17T02:51:07.248Z,1.40
2022-12-17T02:53:53.382Z,1.40
2022-12-17T02:56:41.067Z,1.40
2022-12-17T02:59:27.148Z,1.40
2022-12-17T03:02:13.054Z,1.40
2022-12-17T03:05:10.523Z,1.50
2022-12-17T03:08:06.177Z,1.40
2022-12-17T03:10:51.815Z,1.50
2022-12-17T03:13:45.448Z,1.50
2022-12-17T03:16:37.421Z,1.50
2022-12-17T03:19:23.576Z,1.40
2022-12-17T03:22:09.565Z,1.40
2022-12-17T03:24:55.285Z,1.40
2022-12-17T03:27:46.228Z,1.40
2022-12-17T03:30:36.036Z,1.30
2022-12-17T03:33:23.052Z,1.30
2022-12-17T03:36:12.462Z,1.20
2022-12-17T03:38:58.659Z,1.20
2022-12-17T03:41:44.416Z,1.10
2022-12-17T03:44:33.433Z,1.10
2022-12-17T03:47:18.990Z,1.00
2022-12-17T03:50:04.540Z,1.00
2022-12-17T03:52:50.654Z,1.00
2022-12-17T03:55:36.394Z,1.00
2022-12-17T03:58:22.045Z,1.00
2022-12-17T04:01:08.039Z,1.00
2022-12-17T04:03:53.481Z,1.00
2022-12-17T04:06:39.528Z,1.00
2022-12-17T04:09:24.993Z,1.00
2022-12-17T04:12:10.692Z,1.00
2022-12-17T04:14:56.472Z,1.10
2022-12-17T04:17:42.113Z,1.10
2022-12-17T04:20:28.041Z,1.10
2022-12-17T04:23:13.630Z,1.10
2022-12-17T04:25:59.131Z,1.10
2022-12-17T04:28:45.082Z,1.10
2022-12-17T04:31:30.502Z,1.20
2022-12-17T04:34:16.035Z,1.20
2022-12-17T04:37:01.438Z,1.20
2022-12-17T04:39:47.107Z,1.20
2022-12-17T04:42:33.680Z,1.10
2022-12-17T04:45:19.184Z,1.10
2022-12-17T04:48:05.860Z,1.10
2022-12-17T04:50:51.466Z,1.10
2022-12-17T04:53:37.466Z,1.10
2022-12-17T04:56:23.225Z,1.10
2022-12-17T04:59:09.133Z,1.10
2022-12-17T05:01:55.033Z,1.10
2022-12-17T05:04:40.580Z,1.10
2022-12-17T05:07:26.206Z,1.10
2022-12-17T05:10:13.693Z,1.10
2022-12-17T05:12:59.383Z,1.10
2022-12-17T05:15:49.789Z,1.20
2022-12-17T05:18:38.318Z,1.20
2022-12-17T05:21:24.440Z,1.20
2022-12-17T05:24:10.216Z,1.20
2022-12-17T05:27:00.313Z,1.20
2022-12-17T05:29:46.287Z,1.20
2022-12-17T05:32:33.633Z,1.10
2022-12-17T05:35:19.435Z,1.10
2022-12-17T05:38:05.180Z,1.10
2022-12-17T05:40:51.900Z,1.10
2022-12-17T05:43:37.852Z,1.10
2022-12-17T05:46:24.503Z,1.00
2022-12-17T05:49:10.168Z,1.00
2022-12-17T05:51:56.938Z,1.00
2022-12-17T05:54:45.720Z,0.90
2022-12-17T05:57:31.479Z,0.90
2022-12-17T06:00:17.311Z,0.90
2022-12-17T06:03:03.096Z,0.90
2022-12-17T06:05:50.479Z,0.90
2022-12-17T06:08:40.884Z,0.90
2022-12-17T06:11:26.740Z,0.90
2022-12-17T06:14:12.480Z,0.80
2022-12-17T06:16:58.143Z,0.80
2022-12-17T06:19:43.821Z,0.80
2022-12-17T06:22:29.347Z,0.70
2022-12-17T06:25:15.383Z,0.70
2022-12-17T06:28:01.494Z,0.70
2022-12-17T06:30:47.234Z,0.70
2022-12-17T06:33:32.978Z,0.60
2022-12-17T06:36:22.634Z,0.60
2022-12-17T06:39:09.824Z,0.60
2022-12-17T06:42:00.472Z,0.60
2022-12-17T06:44:52.968Z,0.60
2022-12-17T06:47:38.797Z,0.60
2022-12-17T06:50:25.396Z,0.60
2022-12-17T06:53:23.534Z,0.60
2022-12-17T06:56:10.244Z,0.60
2022-12-17T06:58:56.554Z,0.60
2022-12-17T07:01:49.925Z,0.50
2022-12-17T07:04:37.180Z,0.50
2022-12-17T07:07:22.809Z,0.50
2022-12-17T07:10:13.935Z,0.50
2022-12-17T07:13:00.178Z,0.50
2022-12-17T07:15:46.142Z,0.50
2022-12-17T07:18:31.916Z,0.60
2022-12-17T07:21:17.641Z,0.60
2022-12-17T07:24:03.395Z,0.50
2022-12-17T07:26:50.316Z,0.50
2022-12-17T07:29:36.209Z,0.50
2022-12-17T07:32:22.266Z,0.50
2022-12-17T07:35:07.719Z,0.50
2022-12-17T07:37:53.525Z,0.50
2022-12-17T07:40:40.869Z,0.40
2022-12-17T07:43:34.702Z,0.40
2022-12-17T07:46:22.234Z,0.40
2022-12-17T07:49:08.186Z,0.30
2022-12-17T07:51:54.887Z,0.30
2022-12-17T07:54:48.264Z,0.20
2022-12-17T07:57:34.219Z,0.20
2022-12-17T08:00:19.642Z,0.20
2022-12-17T08:03:05.549Z,0.20
2022-12-17T08:05:51.369Z,0.30
2022-12-17T08:08:37.238Z,0.30
2022-12-17T08:11:23.114Z,0.30
2022-12-17T08:14:08.774Z,0.30
2022-12-17T08:16:54.915Z,0.30
2022-12-17T08:19:41.171Z,0.30
2022-12-17T08:22:27.934Z,0.30
2022-12-17T08:25:13.555Z,0.30
2022-12-17T08:27:59.365Z,0.30
2022-12-17T08:30:45.085Z,0.30
2022-12-17T08:33:30.924Z,0.30
2022-12-17T08:36:17.654Z,0.30
2022-12-17T08:39:04.426Z,0.30
2022-12-17T08:41:54.827Z,0.20
2022-12-17T08:44:42.560Z,0.20
2022-12-17T08:47:27.955Z,0.20
2022-12-17T08:50:13.675Z,0.20
2022-12-17T08:52:59.037Z,0.20
2022-12-17T08:55:44.744Z,0.20
2022-12-17T08:58:33.066Z,0.20
2022-12-17T09:01:20.829Z,0.20
2022-12-17T09:04:06.460Z,0.20
2022-12-17T09:06:52.729Z,0.20
2022-12-17T09:09:39.322Z,0.20
2022-12-17T09:12:25.304Z,0.20
2022-12-17T09:15:12.538Z,0.20
2022-12-17T09:17:58.530Z,0.20
2022-12-17T09:20:46.613Z,0.20
2022-12-17T09:23:37.077Z,0.20
2022-12-17T09:26:23.875Z,0.30
2022-12-17T09:29:10.336Z,0.30
2022-12-17T09:31:56.235Z,0.30
2022-12-17T09:34:42.885Z,0.30
2022-12-17T09:37:30.014Z,0.30
2022-12-17T09:40:17.442Z,0.30
2022-12-17T09:43:03.789Z,0.30
2022-12-17T09:46:21.150Z,0.30
2022-12-17T09:49:21.954Z,0.30
2022-12-17T09:52:08.915Z,0.30
2022-12-17T09:55:10.783Z,0.30
2022-12-17T09:57:56.949Z,0.30
2022-12-17T10:00:50.296Z,0.30
2022-12-17T10:03:42.615Z,0.30
2022-12-17T10:06:38.612Z,0.40
2022-12-17T10:09:37.867Z,0.40
2022-12-17T10:12:37.570Z,0.40
2022-12-17T10:15:25.367Z,0.50
2022-12-17T10:18:11.813Z,0.50
2022-12-17T10:21:06.266Z,0.60
2022-12-17T10:23:53.162Z,0.70
2022-12-17T10:26:48.061Z,0.70
2022-12-17T10:29:47.734Z,0.80
2022-12-17T10:32:34.414Z,0.80
2022-12-17T10:35:39.505Z,0.90
2022-12-17T10:38:41.797Z,0.90
2022-12-17T10:42:04.295Z,1.00
2022-12-17T10:44:56.978Z,1.00
2022-12-17T10:47:44.998Z,1.10
2022-12-17T10:50:44.631Z,1.10
2022-12-17T10:53:42.513Z,1.10
2022-12-17T10:56:41.244Z,1.20
2022-12-17T10:59:50.795Z,1.20
2022-12-17T11:02:45.296Z,1.20
2022-12-17T11:08:45.542Z,1.30
2022-12-17T11:11:33.897Z,1.30
2022-12-17T11:14:22.692Z,1.30
2022-12-17T11:17:21.630Z,1.30
2022-12-17T11:20:15.739Z,1.30
2022-12-17T11:23:03.465Z,1.40
2022-12-17T11:26:14.230Z,1.40
2022-12-17T11:29:01.709Z,1.40
2022-12-17T11:32:05.850Z,1.40
2022-12-17T11:34:55.267Z,1.40
2022-12-17T11:37:50.673Z,1.40
2022-12-17T11:40:55.852Z,1.40
2022-12-17T11:43:59.912Z,1.50
2022-12-17T11:47:09.665Z,1.50
2022-12-17T11:50:05.395Z,1.50
2022-12-17T11:52:57.967Z,1.50
2022-12-17T11:56:05.652Z,1.50
2022-12-17T11:59:00.633Z,1.50
2022-12-17T12:02:02.081Z,1.50
2022-12-17T12:04:57.784Z,1.50
2022-12-17T12:07:54.504Z,1.50
2022-12-17T12:10:44.612Z,1.50
2022-12-17T12:14:21.873Z,1.50
2022-12-17T12:17:13.921Z,1.50
2022-12-17T12:20:21.229Z,1.50
2022-12-17T12:23:31.581Z,1.50
2022-12-17T12:26:34.776Z,1.60
2022-12-17T12:29:20.770Z,1.60
2022-12-17T12:32:18.800Z,1.60
2022-12-17T12:35:05.321Z,1.60
2022-12-17T12:38:05.386Z,1.60
2022-12-17T12:41:09.005Z,1.60
2022-12-17T12:44:33.278Z,1.60
2022-12-17T12:47:28.653Z,1.60
2022-12-17T12:50:47.816Z,1.60
2022-12-17T12:53:33.506Z,1.50
2022-12-17T12:56:20.916Z,1.50
2022-12-17T12:59:09.991Z,1.50
2022-12-17T13:01:57.037Z,1.60
2022-12-17T13:04:59.007Z,1.50
2022-12-17T13:07:30.307Z,1.50
2022-12-17T13:09:58.772Z,1.50
2022-12-17T13:12:45.931Z,1.60
2022-12-17T13:15:27.753Z,1.60
2022-12-17T13:18:32.637Z,1.70
2022-12-17T13:21:16.884Z,1.80
2022-12-17T13:23:45.426Z,1.90
2022-12-17T13:26:37.827Z,2.00
2022-12-17T13:29:21.554Z,2.10
2022-12-17T13:31:56.247Z,2.10
2022-12-17T13:34:34.713Z,2.20
2022-12-17T13:37:07.716Z,2.30
2022-12-17T13:40:01.122Z,2.40
2022-12-17T13:42:35.118Z,2.40
2022-12-17T13:45:03.508Z,2.50
2022-12-17T13:47:35.424Z,2.50
2022-12-17T13:50:35.628Z,2.50
2022-12-17T13:53:14.366Z,2.60
2022-12-17T13:55:41.737Z,2.70
2022-12-17T13:58:26.642Z,2.70
2022-12-17T14:01:14.866Z,2.70
2022-12-17T14:04:06.227Z,2.70
2022-12-17T14:06:39.517Z,2.70
2022-12-17T14:09:07.939Z,2.70
2022-12-17T14:14:43.199Z,2.80
2022-12-17T14:17:22.454Z,2.80
2022-12-17T14:20:24.060Z,2.80
2022-12-17T14:22:55.164Z,2.80
2022-12-17T14:25:31.764Z,2.80
2022-12-17T14:28:03.820Z,2.80
2022-12-17T14:31:09.703Z,2.80
2022-12-17T14:33:34.863Z,2.80
2022-12-17T14:36:30.213Z,2.80
2022-12-17T14:39:00.734Z,2.80
2022-12-17T14:41:49.553Z,2.80
2022-12-17T14:44:21.883Z,2.80
2022-12-17T14:46:56.501Z,2.80
2022-12-17T14:49:28.587Z,2.80
2022-12-17T14:51:58.909Z,2.80
2022-12-17T14:54:31.493Z,2.80
2022-12-17T14:57:01.966Z,2.80
2022-12-17T14:59:36.683Z,2.80
2022-12-17T15:04:59.067Z,2.70
2022-12-17T15:07:28.952Z,2.70
2022-12-17T15:10:02.689Z,2.70
2022-12-17T15:12:34.203Z,2.70
2022-12-17T15:15:01.562Z,2.70
2022-12-17T15:17:29.513Z,2.70
2022-12-17T15:19:56.794Z,2.70
2022-12-17T15:22:24.459Z,2.60
2022-12-17T15:24:52.590Z,2.60
2022-12-17T15:27:19.911Z,2.60
2022-12-17T15:29:52.500Z,2.60
2022-12-17T15:32:22.763Z,2.60
2022-12-17T15:34:50.660Z,2.60
2022-12-17T15:37:25.348Z,2.60
2022-12-17T15:39:54.526Z,2.60
2022-12-17T15:42:40.194Z,2.60
2022-12-17T15:45:08.591Z,2.60
2022-12-17T15:47:38.893Z,2.60
2022-12-17T15:50:07.218Z,2.60
2022-12-17T15:52:34.835Z,2.60
2022-12-17T15:55:03.560Z,2.50
2022-12-17T15:57:33.059Z,2.50
2022-12-17T16:00:00.326Z,2.50
2022-12-17T16:02:28.493Z,2.50
2022-12-17T16:05:22.887Z,2.50
2022-12-17T16:07:51.881Z,2.50
2022-12-17T16:10:21.571Z,2.50
2022-12-17T16:12:50.585Z,2.40
2022-12-17T16:15:19.739Z,2.40
2022-12-17T16:17:47.610Z,2.40
2022-12-17T16:20:14.900Z,2.40
2022-12-17T16:22:42.156Z,2.30
2022-12-17T16:25:10.793Z,2.30
2022-12-17T16:27:38.508Z,2.20
2022-12-17T16:30:07.558Z,2.20
2022-12-17T16:32:36.801Z,2.20
2022-12-17T16:35:05.605Z,2.10
2022-12-17T16:37:33.816Z,2.10
2022-12-17T16:40:01.604Z,2.10
2022-12-17T16:42:29.893Z,2.10
2022-12-17T16:44:58.273Z,2.00
2022-12-17T16:47:28.266Z,2.00
2022-12-17T16:49:56.016Z,1.90
2022-12-17T16:52:23.688Z,1.90
2022-12-17T16:55:17.112Z,1.90
2022-12-17T16:57:50.251Z,1.90
2022-12-17T17:00:19.655Z,1.80
2022-12-17T17:02:53.259Z,1.80
2022-12-17T17:05:21.313Z,1.80
2022-12-17T17:07:48.575Z,1.80
2022-12-17T17:10:16.495Z,1.80
2022-12-17T17:13:10.885Z,1.80
2022-12-17T17:15:39.266Z,1.80
2022-12-17T17:18:06.618Z,1.70
2022-12-17T17:20:33.864Z,1.70
2022-12-17T17:23:01.474Z,1.70
2022-12-17T17:25:44.256Z,1.60
2022-12-17T17:28:16.052Z,1.60
2022-12-17T17:30:45.902Z,1.60
2022-12-17T17:33:41.604Z,1.60
2022-12-17T17:36:12.188Z,1.60
2022-12-17T17:38:41.167Z,1.50
2022-12-17T17:41:13.381Z,1.50
2022-12-17T17:43:41.758Z,1.50
2022-12-17T17:46:16.069Z,1.50
2022-12-17T17:48:46.293Z,1.40
2022-12-17T17:51:52.031Z,1.40
2022-12-17T17:54:14.393Z,1.30
2022-12-17T17:56:43.739Z,1.30
2022-12-17T17:59:17.981Z,1.30
2022-12-17T18:01:53.502Z,1.40
2022-12-17T18:04:22.512Z,1.30
2022-12-17T18:07:25.987Z,1.30
2022-12-17T18:09:42.503Z,1.20
2022-12-17T18:12:29.375Z,1.20
2022-12-17T18:17:46.823Z,1.20
2022-12-17T18:20:17.006Z,1.20
2022-12-17T18:22:46.495Z,1.20
2022-12-17T18:25:18.664Z,1.10
2022-12-17T18:27:46.683Z,1.20
2022-12-17T18:30:16.441Z,1.20
2022-12-17T18:32:44.683Z,1.20
2022-12-17T18:35:19.115Z,1.20
2022-12-17T18:38:00.231Z,1.30
2022-12-17T18:40:33.502Z,1.30
2022-12-17T18:43:46.151Z,1.30
2022-12-17T18:46:16.917Z,1.20
2022-12-17T18:48:53.930Z,1.20
2022-12-17T18:51:24.421Z,1.20
2022-12-17T18:54:02.497Z,1.20
2022-12-17T18:57:00.428Z,1.20
2022-12-17T18:59:31.450Z,1.20
2022-12-17T19:04:50.968Z,1.20
2022-12-17T19:07:24.701Z,1.30
2022-12-17T19:09:53.651Z,1.30
2022-12-17T19:12:24.753Z,1.30
2022-12-17T19:15:22.931Z,1.30
2022-12-17T19:17:58.224Z,1.40
2022-12-17T19:27:33.867Z,1.40
2022-12-17T19:30:12.858Z,1.40
2022-12-17T19:32:53.221Z,1.40
2022-12-17T19:35:24.128Z,1.40
2022-12-17T19:38:02.527Z,1.30
2022-12-17T19:40:30.316Z,1.40
2022-12-17T19:45:51.927Z,1.50
2022-12-17T19:48:23.751Z,1.50
2022-12-17T19:51:02.739Z,1.50
2022-12-17T19:53:43.046Z,1.50
2022-12-17T19:56:19.491Z,1.50
2022-12-17T19:59:20.516Z,1.50
2022-12-17T20:01:56.922Z,1.50
2022-12-17T20:04:27.702Z,1.50
2022-12-17T20:07:10.888Z,1.50
2022-12-17T20:09:48.200Z,1.50
2022-12-17T20:12:49.117Z,1.50
2022-12-17T20:15:25.971Z,1.40
2022-12-17T20:17:53.601Z,1.40
2022-12-17T20:23:26.930Z,1.40
2022-12-17T20:26:16.397Z,1.40
2022-12-17T20:28:48.569Z,1.40
2022-12-17T20:31:23.672Z,1.40
2022-12-17T20:33:56.882Z,1.30
2022-12-17T20:36:30.017Z,1.30
2022-12-17T20:39:00.321Z,1.30
2022-12-17T20:42:09.637Z,1.20
2022-12-17T20:48:34.350Z,1.10
2022-12-17T20:51:05.904Z,1.10
2022-12-17T20:53:35.043Z,1.10
2022-12-17T20:56:12.676Z,1.10
2022-12-17T20:58:41.853Z,1.20
2022-12-17T21:01:17.002Z,1.20
2022-12-17T21:03:47.157Z,1.20
2022-12-17T21:06:23.028Z,1.20
2022-12-17T21:08:53.817Z,1.20
2022-12-17T21:11:27.201Z,1.10
2022-12-17T21:13:56.695Z,1.10
2022-12-17T21:16:30.910Z,1.00
2022-12-17T21:19:04.188Z,1.00
2022-12-17T21:21:35.746Z,0.90
2022-12-17T21:24:03.144Z,0.90
2022-12-17T21:26:38.663Z,0.80
2022-12-17T21:29:08.450Z,0.80
2022-12-17T21:31:40.622Z,0.80
2022-12-17T21:34:13.938Z,0.70
2022-12-17T21:36:44.696Z,0.70
2022-12-17T21:39:15.227Z,0.70
2022-12-17T21:42:07.728Z,0.70
2022-12-17T21:44:35.534Z,0.70
2022-12-17T21:47:05.049Z,0.70
2022-12-17T21:49:32.934Z,0.70
2022-12-17T21:52:01.625Z,0.70
2022-12-17T21:54:28.863Z,0.70
2022-12-17T21:56:57.418Z,0.70
2022-12-17T21:59:27.087Z,0.70
2022-12-17T22:01:58.317Z,0.70
2022-12-17T22:04:26.653Z,0.70
2022-12-17T22:07:05.585Z,0.70
2022-12-17T22:09:55.755Z,0.70
2022-12-17T22:12:44.785Z,0.80
2022-12-17T22:15:13.017Z,0.80
2022-12-17T22:17:41.001Z,0.80
2022-12-17T22:20:12.778Z,0.80
2022-12-17T22:22:42.139Z,0.80
2022-12-17T22:25:15.698Z,0.80
2022-12-17T22:27:44.639Z,0.80
2022-12-17T22:30:36.817Z,0.80
2022-12-17T22:33:06.609Z,0.80
2022-12-17T22:37:40.188Z,0.80
2022-12-17T22:41:27.519Z,0.80
2022-12-17T22:44:30.557Z,0.80
2022-12-17T22:44:48.258Z,0.80
2022-12-17T22:47:16.299Z,0.80
2022-12-17T22:49:46.282Z,0.80
2022-12-17T22:52:13.601Z,0.80
2022-12-17T22:54:45.410Z,0.80
2022-12-17T22:57:36.712Z,0.90
2022-12-17T22:59:59.956Z,0.90
2022-12-17T23:02:27.516Z,0.90
2022-12-17T23:04:54.765Z,0.90
2022-12-17T23:07:26.893Z,1.00
2022-12-17T23:09:57.263Z,0.90
2022-12-17T23:12:42.917Z,0.90
2022-12-17T23:15:10.240Z,0.80
2022-12-17T23:17:37.360Z,0.90
2022-12-17T23:20:04.856Z,0.90
2022-12-17T23:22:31.947Z,0.90
2022-12-17T23:24:59.110Z,1.00
2022-12-17T23:27:26.203Z,1.00
2022-12-17T23:29:53.376Z,1.00
2022-12-17T23:32:20.612Z,1.10
2022-12-17T23:34:47.898Z,1.10
2022-12-17T23:37:15.095Z,1.10
2022-12-17T23:39:42.750Z,1.10
2022-12-17T23:42:09.966Z,1.10
2022-12-17T23:44:37.068Z,1.10
2022-12-17T23:47:04.343Z,1.10
2022-12-17T23:49:31.710Z,1.10
2022-12-17T23:51:58.938Z,1.10
2022-12-17T23:54:26.306Z,1.00
2022-12-17T23:56:53.355Z,1.00
2022-12-17T23:59:20.887Z,1.00
